createdAt,value
2023-01-11T00:00:38.954Z,3.20
2023-01-11T00:03:06.494Z,3.30
2023-01-11T00:05:38.067Z,3.25
2023-01-11T00:08:05.195Z,3.78
2023-01-11T00:10:33.154Z,3.80
2023-01-11T00:13:01.427Z,3.53
2023-01-11T00:15:29.322Z,3.33
2023-01-11T00:17:55.707Z,3.60
2023-01-11T00:20:22.048Z,3.25
2023-01-11T00:22:48.488Z,3.42
2023-01-11T00:25:14.810Z,3.33
2023-01-11T00:27:41.142Z,3.38
2023-01-11T00:30:08.133Z,3.03
2023-01-11T00:32:34.474Z,3.50
2023-01-11T00:35:01.060Z,2.83
2023-01-11T00:37:27.431Z,2.90
2023-01-11T00:39:53.748Z,2.88
2023-01-11T00:42:38.664Z,3.15
2023-01-11T00:45:24.136Z,2.63
2023-01-11T00:48:04.759Z,3.00
2023-01-11T00:50:33.761Z,3.23
2023-01-11T00:53:00.118Z,2.85
2023-01-11T00:55:26.738Z,3.00
2023-01-11T00:57:53.229Z,2.50
2023-01-11T01:00:21.336Z,3.15
2023-01-11T01:02:48.188Z,3.00
2023-01-11T01:05:14.991Z,2.35
2023-01-11T01:07:41.809Z,2.85
2023-01-11T01:10:09.155Z,2.38
2023-01-11T01:12:53.857Z,2.67
2023-01-11T01:15:20.713Z,2.70
2023-01-11T01:17:47.605Z,2.40
2023-01-11T01:20:14.848Z,2.55
2023-01-11T01:22:41.469Z,2.33
2023-01-11T01:25:08.235Z,2.35
2023-01-11T01:27:34.584Z,2.23
2023-01-11T01:30:00.979Z,2.15
2023-01-11T01:32:27.288Z,2.00
2023-01-11T01:34:53.599Z,1.90
2023-01-11T01:37:19.950Z,1.90
2023-01-11T01:39:46.285Z,1.50
2023-01-11T01:42:18.318Z,1.90
2023-01-11T01:44:53.628Z,1.60
2023-01-11T01:47:23.041Z,1.88
2023-01-11T01:49:49.398Z,1.65
2023-01-11T01:52:16.363Z,1.23
2023-01-11T01:54:46.929Z,1.17
2023-01-11T01:57:21.133Z,1.25
2023-01-11T01:59:51.800Z,1.05
2023-01-11T02:02:24.705Z,1.17
2023-01-11T02:04:52.913Z,1.10
2023-01-11T02:07:22.574Z,1.50
2023-01-11T02:10:15.274Z,1.38
2023-01-11T02:12:47.768Z,1.15
2023-01-11T02:15:14.747Z,0.90
2023-01-11T02:17:41.146Z,0.80
2023-01-11T02:20:45.369Z,1.00
2023-01-11T02:23:36.099Z,0.75
2023-01-11T02:26:23.600Z,0.60
2023-01-11T02:29:01.243Z,0.70
2023-01-11T02:31:51.284Z,0.70
2023-01-11T02:34:42.919Z,0.90
2023-01-11T02:37:09.185Z,0.60
2023-01-11T02:40:20.502Z,0.57
2023-01-11T02:43:19.113Z,1.02
2023-01-11T02:46:01.873Z,1.10
2023-01-11T02:48:46.760Z,1.10
2023-01-11T02:51:22.051Z,1.70
2023-01-11T02:54:19.545Z,1.98
2023-01-11T02:56:49.220Z,1.63
2023-01-11T02:59:23.079Z,1.47
2023-01-11T03:01:52.965Z,1.45
2023-01-11T03:04:27.900Z,1.70
2023-01-11T03:07:13.097Z,1.63
2023-01-11T03:09:59.070Z,1.58
2023-01-11T03:12:52.583Z,1.80
2023-01-11T03:15:43.508Z,1.90
2023-01-11T03:18:36.725Z,1.75
2023-01-11T03:21:14.925Z,1.90
2023-01-11T03:23:47.445Z,1.58
2023-01-11T03:26:42.535Z,1.60
2023-01-11T03:29:35.241Z,1.58
2023-01-11T03:32:01.505Z,1.40
2023-01-11T03:34:46.581Z,1.30
2023-01-11T03:37:22.821Z,1.25
2023-01-11T03:40:00.534Z,0.90
2023-01-11T03:42:28.918Z,1.25
2023-01-11T03:44:57.860Z,1.20
2023-01-11T03:47:27.597Z,0.70
2023-01-11T03:49:58.518Z,0.68
2023-01-11T03:52:32.091Z,0.90
2023-01-11T03:55:00.080Z,0.50
2023-01-11T03:57:31.902Z,0.20
2023-01-11T03:59:58.559Z,0.32
2023-01-11T04:02:28.074Z,0.20
2023-01-11T04:04:54.649Z,0.30
2023-01-11T04:07:20.997Z,0.60
2023-01-11T04:09:47.338Z,0.90
2023-01-11T04:12:13.673Z,0.82
2023-01-11T04:14:40.052Z,0.70
2023-01-11T04:17:06.455Z,0.77
2023-01-11T04:19:32.790Z,0.57
2023-01-11T04:21:59.102Z,1.33
2023-01-11T04:24:25.697Z,1.23
2023-01-11T04:26:52.116Z,1.60
2023-01-11T04:29:18.442Z,1.57
2023-01-11T04:31:44.961Z,2.40
2023-01-11T04:34:12.141Z,1.67
2023-01-11T04:36:38.452Z,2.95
2023-01-11T04:39:06.372Z,2.33
2023-01-11T04:41:51.158Z,2.87
2023-01-11T04:44:17.518Z,2.47
2023-01-11T04:46:43.866Z,2.60
2023-01-11T04:49:10.180Z,3.33
2023-01-11T04:51:36.536Z,2.22
2023-01-11T04:54:02.899Z,2.30
2023-01-11T04:56:29.495Z,2.20
2023-01-11T04:58:55.911Z,2.20
2023-01-11T05:01:22.271Z,2.70
2023-01-11T05:03:48.741Z,2.17
2023-01-11T05:06:15.374Z,2.50
2023-01-11T05:08:46.079Z,2.33
2023-01-11T05:11:12.557Z,2.20
2023-01-11T05:13:41.849Z,1.92
2023-01-11T05:16:12.215Z,2.30
2023-01-11T05:18:40.904Z,2.10
2023-01-11T05:21:08.694Z,1.80
2023-01-11T05:23:38.441Z,1.60
2023-01-11T05:26:10.904Z,2.40
2023-01-11T05:28:37.504Z,1.55
2023-01-11T05:31:03.912Z,1.97
2023-01-11T05:33:30.381Z,1.25
2023-01-11T05:36:08.375Z,1.50
2023-01-11T05:38:34.950Z,1.30
2023-01-11T05:41:04.805Z,1.60
2023-01-11T05:43:32.207Z,1.27
2023-01-11T05:45:59.590Z,1.60
2023-01-11T05:48:26.276Z,1.35
2023-01-11T05:50:56.260Z,1.20
2023-01-11T05:53:24.151Z,0.65
2023-01-11T05:55:58.367Z,1.00
2023-01-11T05:58:26.654Z,1.65
2023-01-11T06:00:55.166Z,1.42
2023-01-11T06:03:23.095Z,1.45
2023-01-11T06:05:50.292Z,1.85
2023-01-11T06:08:16.841Z,1.70
2023-01-11T06:10:46.091Z,2.03
2023-01-11T06:13:27.548Z,1.70
2023-01-11T06:16:03.127Z,1.55
2023-01-11T06:18:31.936Z,1.20
2023-01-11T06:20:58.328Z,1.10
2023-01-11T06:23:25.460Z,1.50
2023-01-11T06:25:51.856Z,1.90
2023-01-11T06:28:18.222Z,1.60
2023-01-11T06:30:44.732Z,1.40
2023-01-11T06:33:11.099Z,1.03
2023-01-11T06:35:42.005Z,1.40
2023-01-11T06:38:10.632Z,1.27
2023-01-11T06:40:38.735Z,0.70
2023-01-11T06:43:05.686Z,1.35
2023-01-11T06:45:32.741Z,1.30
2023-01-11T06:47:59.565Z,1.15
2023-01-11T06:50:26.277Z,0.95
2023-01-11T06:52:54.257Z,1.85
2023-01-11T06:55:21.204Z,1.40
2023-01-11T06:57:47.733Z,1.20
2023-01-11T07:00:14.905Z,1.13
2023-01-11T07:02:41.234Z,1.33
2023-01-11T07:05:08.121Z,1.60
2023-01-11T07:07:34.503Z,2.08
2023-01-11T07:10:00.808Z,1.27
2023-01-11T07:12:27.114Z,1.00
2023-01-11T07:14:53.454Z,1.10
2023-01-11T07:17:19.780Z,1.00
2023-01-11T07:19:46.099Z,0.98
2023-01-11T07:22:12.447Z,0.77
2023-01-11T07:24:38.835Z,1.00
2023-01-11T07:27:05.236Z,1.00
2023-01-11T07:29:31.683Z,1.33
2023-01-11T07:31:58.055Z,0.95
2023-01-11T07:37:28.166Z,0.98
2023-01-11T07:39:55.791Z,0.85
2023-01-11T07:42:40.737Z,1.08
2023-01-11T07:45:07.708Z,1.02
2023-01-11T07:47:34.034Z,2.40
2023-01-11T07:50:00.367Z,0.95
2023-01-11T07:52:26.727Z,0.98
2023-01-11T07:54:53.029Z,0.90
2023-01-11T07:57:19.434Z,1.20
2023-01-11T07:59:45.811Z,1.43
2023-01-11T08:02:12.123Z,0.80
2023-01-11T08:04:38.472Z,0.80
2023-01-11T08:07:04.855Z,1.00
2023-01-11T08:09:31.180Z,1.15
2023-01-11T08:12:16.296Z,1.20
2023-01-11T08:14:42.694Z,1.23
2023-01-11T08:17:12.472Z,0.80
2023-01-11T08:19:39.539Z,0.77
2023-01-11T08:22:06.595Z,0.90
2023-01-11T08:24:34.689Z,1.17
2023-01-11T08:27:02.121Z,1.23
2023-01-11T08:29:28.549Z,1.20
2023-01-11T08:31:55.030Z,1.20
2023-01-11T08:34:21.506Z,1.63
2023-01-11T08:36:47.838Z,1.10
2023-01-11T08:39:14.147Z,1.38
2023-01-11T08:41:40.503Z,0.95
2023-01-11T08:44:06.856Z,1.42
2023-01-11T08:46:34.160Z,1.45
2023-01-11T08:49:01.806Z,1.40
2023-01-11T08:51:28.211Z,0.93
2023-01-11T08:53:54.523Z,1.33
2023-01-11T08:56:21.085Z,1.67
2023-01-11T08:58:47.407Z,1.50
2023-01-11T09:01:13.751Z,1.50
2023-01-11T09:03:40.219Z,1.40
2023-01-11T09:06:06.753Z,1.25
2023-01-11T09:08:33.113Z,1.30
2023-01-11T09:11:00.088Z,1.35
2023-01-11T09:13:26.973Z,0.80
2023-01-11T09:15:59.351Z,1.15
2023-01-11T09:18:26.940Z,1.63
2023-01-11T09:20:54.483Z,1.65
2023-01-11T09:23:20.957Z,1.38
2023-01-11T09:25:47.307Z,1.50
2023-01-11T09:28:13.659Z,1.67
2023-01-11T09:30:39.982Z,1.23
2023-01-11T09:33:06.958Z,2.05
2023-01-11T09:35:34.819Z,1.60
2023-01-11T09:38:02.586Z,1.87
2023-01-11T09:41:05.551Z,1.15
2023-01-11T09:43:39.822Z,1.27
2023-01-11T09:46:09.480Z,1.10
2023-01-11T09:48:48.599Z,0.98
2023-01-11T09:51:16.935Z,1.50
2023-01-11T09:53:49.555Z,1.65
2023-01-11T09:56:25.665Z,1.63
2023-01-11T09:59:19.037Z,1.88
2023-01-11T10:02:01.370Z,1.33
2023-01-11T10:04:48.464Z,1.83
2023-01-11T10:07:27.055Z,1.20
2023-01-11T10:18:38.957Z,1.60
2023-01-11T10:19:35.914Z,2.37
2023-01-11T10:22:12.036Z,1.95
2023-01-11T10:24:43.495Z,1.42
2023-01-11T10:27:40.346Z,1.25
2023-01-11T10:30:38.125Z,1.08
2023-01-11T10:33:38.311Z,1.50
2023-01-11T10:36:55.442Z,0.98
2023-01-11T10:39:54.555Z,1.30
2023-01-11T10:42:24.993Z,1.27
2023-01-11T10:45:05.412Z,1.20
2023-01-11T10:47:48.053Z,2.47
2023-01-11T10:50:30.547Z,1.05
2023-01-11T10:53:16.206Z,1.45
2023-01-11T10:56:02.073Z,1.20
2023-01-11T10:59:07.307Z,1.73
2023-01-11T11:01:50.174Z,1.40
2023-01-11T11:04:35.999Z,1.38
2023-01-11T11:07:26.343Z,1.63
2023-01-11T11:10:18.922Z,1.52
2023-01-11T11:12:50.504Z,1.10
2023-01-11T11:15:16.813Z,0.90
2023-01-11T11:17:49.897Z,1.58
2023-01-11T11:20:30.351Z,1.52
2023-01-11T11:22:57.495Z,1.52
2023-01-11T11:25:38.204Z,1.63
2023-01-11T11:28:14.366Z,1.00
2023-01-11T11:30:43.821Z,1.50
2023-01-11T11:33:21.961Z,1.58
2023-01-11T11:35:56.783Z,1.55
2023-01-11T11:38:25.756Z,1.10
2023-01-11T11:41:06.293Z,1.93
2023-01-11T11:43:34.587Z,1.55
2023-01-11T11:46:03.520Z,1.20
2023-01-11T11:48:35.036Z,1.20
2023-01-11T11:51:04.858Z,1.33
2023-01-11T11:53:56.120Z,1.50
2023-01-11T11:56:29.709Z,1.85
2023-01-11T11:58:57.931Z,1.52
2023-01-11T12:01:31.451Z,1.27
2023-01-11T12:04:02.939Z,3.13
2023-01-11T12:06:30.222Z,1.20
2023-01-11T12:09:01.072Z,1.10
2023-01-11T12:11:38.783Z,1.70
2023-01-11T12:14:10.915Z,1.38
2023-01-11T12:16:40.407Z,1.13
2023-01-11T12:19:25.283Z,2.13
2023-01-11T12:21:51.785Z,1.20
2023-01-11T12:24:22.653Z,1.40
2023-01-11T12:27:27.619Z,1.67
2023-01-11T12:30:08.428Z,2.38
2023-01-11T12:32:52.201Z,1.60
2023-01-11T12:35:30.553Z,1.50
2023-01-11T12:38:32.117Z,1.08
2023-01-11T12:41:43.315Z,1.25
2023-01-11T12:44:17.123Z,1.90
2023-01-11T12:46:53.259Z,1.33
2023-01-11T12:49:37.510Z,1.33
2023-01-11T12:52:21.431Z,2.00
2023-01-11T12:55:30.692Z,0.98
2023-01-11T12:58:19.702Z,1.80
2023-01-11T13:01:12.637Z,0.93
2023-01-11T13:03:59.182Z,1.50
2023-01-11T13:06:36.153Z,0.82
2023-01-11T13:09:05.769Z,1.40
2023-01-11T13:11:45.898Z,1.63
2023-01-11T13:14:35.150Z,1.17
2023-01-11T13:17:36.878Z,0.90
2023-01-11T13:20:40.367Z,0.90
2023-01-11T13:23:26.122Z,1.35
2023-01-11T13:25:54.999Z,1.00
2023-01-11T13:28:38.200Z,1.30
2023-01-11T13:31:07.372Z,1.25
2023-01-11T13:33:37.629Z,0.90
2023-01-11T13:36:22.787Z,1.15
2023-01-11T13:39:18.115Z,1.00
2023-01-11T13:41:52.028Z,1.20
2023-01-11T13:44:21.208Z,1.40
2023-01-11T13:47:05.895Z,1.33
2023-01-11T13:49:42.731Z,1.38
2023-01-11T13:52:13.922Z,1.50
2023-01-11T13:55:00.757Z,1.83
2023-01-11T13:57:40.816Z,2.17
2023-01-11T14:00:24.728Z,1.05
2023-01-11T14:03:25.713Z,1.63
2023-01-11T14:06:06.118Z,0.93
2023-01-11T14:09:00.414Z,2.13
2023-01-11T14:11:44.585Z,1.27
2023-01-11T14:14:39.529Z,1.33
2023-01-11T14:17:28.121Z,1.20
2023-01-11T14:20:17.869Z,1.20
2023-01-11T14:23:12.090Z,2.03
2023-01-11T14:26:15.837Z,1.20
2023-01-11T14:28:43.650Z,1.77
2023-01-11T14:31:36.335Z,1.77
2023-01-11T14:34:09.434Z,1.65
2023-01-11T14:36:49.390Z,1.70
2023-01-11T14:39:31.315Z,1.98
2023-01-11T14:42:35.106Z,1.75
2023-01-11T14:45:08.118Z,1.88
2023-01-11T14:47:56.313Z,2.38
2023-01-11T14:50:41.005Z,1.73
2023-01-11T14:53:11.947Z,1.58
2023-01-11T14:55:47.768Z,2.03
2023-01-11T14:58:28.118Z,1.23
2023-01-11T15:00:54.694Z,1.85
2023-01-11T15:03:21.170Z,1.37
2023-01-11T15:05:54.257Z,1.23
2023-01-11T15:08:48.010Z,1.65
2023-01-11T15:11:24.647Z,1.77
2023-01-11T15:14:05.599Z,1.10
2023-01-11T15:16:53.494Z,1.47
2023-01-11T15:19:34.063Z,1.33
2023-01-11T15:22:02.872Z,1.50
2023-01-11T15:24:31.835Z,1.52
2023-01-11T15:27:00.283Z,1.98
2023-01-11T15:29:40.180Z,1.23
2023-01-11T15:32:15.512Z,2.05
2023-01-11T15:34:44.716Z,0.80
2023-01-11T15:37:41.691Z,1.17
2023-01-11T15:40:18.597Z,1.60
2023-01-11T15:42:55.476Z,1.13
2023-01-11T15:46:03.592Z,1.05
2023-01-11T15:48:50.471Z,1.45
2023-01-11T15:51:44.800Z,1.75
2023-01-11T15:54:17.018Z,1.58
2023-01-11T15:57:08.214Z,1.00
2023-01-11T15:59:49.797Z,1.42
2023-01-11T16:02:16.044Z,1.33
2023-01-11T16:04:56.989Z,1.33
2023-01-11T16:07:42.774Z,1.20
2023-01-11T16:10:35.893Z,0.90
2023-01-11T16:13:26.513Z,1.30
2023-01-11T16:16:06.949Z,1.75
2023-01-11T16:18:47.285Z,1.05
2023-01-11T16:21:19.640Z,1.98
2023-01-11T16:23:46.590Z,1.53
2023-01-11T16:26:16.934Z,1.38
2023-01-11T16:28:52.429Z,1.45
2023-01-11T16:31:19.640Z,1.25
2023-01-11T16:33:49.509Z,0.82
2023-01-11T16:36:20.871Z,0.97
2023-01-11T16:39:00.439Z,0.95
2023-01-11T16:41:32.665Z,1.30
2023-01-11T16:44:07.059Z,1.13
2023-01-11T16:46:56.395Z,1.25
2023-01-11T16:49:22.743Z,1.23
2023-01-11T16:51:49.489Z,0.88
2023-01-11T16:54:30.170Z,1.10
2023-01-11T16:56:58.629Z,1.63
2023-01-11T16:59:34.589Z,1.63
2023-01-11T17:02:05.089Z,0.80
2023-01-11T17:04:32.949Z,0.75
2023-01-11T17:07:26.689Z,1.20
2023-01-11T17:09:53.609Z,1.13
2023-01-11T17:12:25.952Z,0.85
2023-01-11T17:15:05.728Z,1.20
2023-01-11T17:17:38.411Z,0.90
2023-01-11T17:20:18.495Z,1.58
2023-01-11T17:22:44.903Z,1.13
2023-01-11T17:25:21.278Z,1.48
2023-01-11T17:27:54.836Z,1.07
2023-01-11T17:30:25.468Z,1.42
2023-01-11T17:32:53.932Z,1.02
2023-01-11T17:35:26.470Z,1.33
2023-01-11T17:37:59.166Z,1.10
2023-01-11T17:40:32.808Z,0.90
2023-01-11T17:43:24.464Z,2.25
2023-01-11T17:46:02.751Z,1.30
2023-01-11T17:48:29.827Z,1.00
2023-01-11T17:50:59.086Z,1.05
2023-01-11T17:53:32.177Z,1.00
2023-01-11T17:55:59.899Z,1.42
2023-01-11T17:58:31.796Z,1.10
2023-01-11T18:01:04.245Z,1.35
2023-01-11T18:03:44.221Z,1.77
2023-01-11T18:06:34.260Z,1.53
2023-01-11T18:09:03.464Z,0.93
2023-01-11T18:11:32.950Z,1.83
2023-01-11T18:14:02.738Z,2.50
2023-01-11T18:16:29.266Z,1.23
2023-01-11T18:18:56.070Z,1.43
2023-01-11T18:21:25.181Z,0.68
2023-01-11T18:24:10.333Z,1.30
2023-01-11T18:26:50.061Z,1.55
2023-01-11T18:29:42.206Z,1.63
2023-01-11T18:32:10.930Z,1.50
2023-01-11T18:34:37.376Z,0.95
2023-01-11T18:37:08.301Z,1.33
2023-01-11T18:39:35.500Z,1.75
2023-01-11T18:42:07.188Z,1.65
2023-01-11T18:44:35.174Z,1.23
2023-01-11T18:47:10.323Z,1.15
2023-01-11T18:49:37.009Z,1.63
2023-01-11T18:52:03.566Z,1.63
2023-01-11T18:54:29.877Z,1.58
2023-01-11T18:56:56.197Z,0.80
2023-01-11T18:59:22.534Z,1.58
2023-01-11T19:01:58.876Z,1.80
2023-01-11T19:04:30.951Z,1.23
2023-01-11T19:06:57.313Z,1.25
2023-01-11T19:09:23.731Z,2.13
2023-01-11T19:11:50.061Z,1.50
2023-01-11T19:14:16.362Z,0.98
2023-01-11T19:16:42.664Z,1.10
2023-01-11T19:19:09.043Z,1.15
2023-01-11T19:21:35.411Z,1.07
2023-01-11T19:24:02.083Z,2.08
2023-01-11T19:26:28.649Z,1.05
2023-01-11T19:28:54.957Z,0.93
2023-01-11T19:31:21.300Z,2.83
2023-01-11T19:33:47.729Z,1.03
2023-01-11T19:36:14.112Z,1.08
2023-01-11T19:38:40.484Z,1.25
2023-01-11T19:41:09.118Z,1.33
2023-01-11T19:43:35.993Z,1.83
2023-01-11T19:46:03.816Z,1.43
2023-01-11T19:48:33.168Z,1.42
2023-01-11T19:51:04.249Z,1.02
2023-01-11T19:53:31.636Z,0.73
2023-01-11T19:56:05.685Z,1.27
2023-01-11T19:58:33.984Z,0.97
2023-01-11T20:01:00.316Z,1.58
2023-01-11T20:03:28.410Z,1.10
2023-01-11T20:06:04.504Z,0.57
2023-01-11T20:08:30.829Z,1.02
2023-01-11T20:10:57.129Z,1.30
2023-01-11T20:13:23.435Z,1.60
2023-01-11T20:15:49.787Z,1.00
2023-01-11T20:18:16.085Z,0.90
2023-01-11T20:20:42.389Z,0.82
2023-01-11T20:23:08.714Z,1.63
2023-01-11T20:25:35.040Z,1.48
2023-01-11T20:28:01.333Z,1.40
2023-01-11T20:30:27.704Z,1.40
2023-01-11T20:32:54.047Z,1.55
2023-01-11T20:35:20.354Z,1.20
2023-01-11T20:37:46.740Z,1.00
2023-01-11T20:40:14.527Z,1.15
2023-01-11T20:42:40.922Z,1.48
2023-01-11T20:45:08.200Z,1.65
2023-01-11T20:47:34.521Z,1.23
2023-01-11T20:50:01.107Z,1.60
2023-01-11T20:52:27.462Z,0.95
2023-01-11T20:54:53.776Z,1.00
2023-01-11T20:57:20.081Z,1.25
2023-01-11T20:59:46.422Z,1.10
2023-01-11T21:02:13.536Z,1.75
2023-01-11T21:04:40.000Z,1.27
2023-01-11T21:07:06.375Z,1.15
2023-01-11T21:09:32.748Z,1.23
2023-01-11T21:11:59.071Z,0.90
2023-01-11T21:14:25.411Z,1.42
2023-01-11T21:16:54.976Z,1.38
2023-01-11T21:19:21.794Z,0.80
2023-01-11T21:21:49.742Z,2.40
2023-01-11T21:24:16.574Z,1.30
2023-01-11T21:26:45.043Z,0.85
2023-01-11T21:29:12.096Z,0.68
2023-01-11T21:31:39.205Z,1.20
2023-01-11T21:34:06.138Z,0.85
2023-01-11T21:36:32.834Z,1.40
2023-01-11T21:39:00.266Z,0.95
2023-01-11T21:41:47.692Z,1.45
2023-01-11T21:44:15.321Z,1.20
2023-01-11T21:46:42.856Z,1.20
2023-01-11T21:49:10.461Z,0.80
2023-01-11T21:51:37.233Z,1.30
2023-01-11T21:54:06.114Z,1.73
2023-01-11T21:56:32.959Z,1.02
2023-01-11T21:58:59.743Z,1.65
2023-01-11T22:01:26.216Z,1.00
2023-01-11T22:03:52.856Z,1.38
2023-01-11T22:06:19.484Z,1.00
2023-01-11T22:08:46.564Z,0.80
2023-01-11T22:11:17.518Z,1.10
2023-01-11T22:13:44.687Z,1.03
2023-01-11T22:16:18.485Z,1.15
2023-01-11T22:18:46.612Z,1.08
2023-01-11T22:21:15.522Z,1.02
2023-01-11T22:23:43.307Z,1.30
2023-01-11T22:26:12.810Z,1.23
2023-01-11T22:28:58.315Z,0.93
2023-01-11T22:31:26.060Z,1.33
2023-01-11T22:33:52.437Z,2.05
2023-01-11T22:36:19.871Z,1.05
2023-01-11T22:38:46.820Z,1.67
2023-01-11T22:41:14.705Z,1.42
2023-01-11T22:43:42.964Z,1.02
2023-01-11T22:46:13.077Z,1.27
2023-01-11T22:48:39.442Z,1.02
2023-01-11T22:51:07.025Z,1.10
2023-01-11T22:53:41.158Z,1.55
2023-01-11T22:56:09.379Z,1.27
2023-01-11T22:58:36.101Z,1.00
2023-01-11T23:01:18.892Z,1.00
2023-01-11T23:03:46.185Z,1.10
2023-01-11T23:06:15.545Z,0.98
2023-01-11T23:08:42.872Z,0.60
2023-01-11T23:11:36.579Z,1.20
2023-01-11T23:14:04.861Z,1.48
2023-01-11T23:16:31.759Z,1.77
2023-01-11T23:18:58.580Z,1.10
2023-01-11T23:21:25.000Z,1.75
2023-01-11T23:23:51.555Z,1.23
2023-01-11T23:26:18.117Z,1.05
2023-01-11T23:28:45.764Z,1.27
2023-01-11T23:31:18.321Z,0.80
2023-01-11T23:33:56.238Z,1.30
2023-01-11T23:36:26.581Z,1.42
2023-01-11T23:38:52.877Z,2.03
2023-01-11T23:41:39.422Z,1.57
2023-01-11T23:44:09.009Z,1.20
2023-01-11T23:46:54.966Z,2.42
2023-01-11T23:49:21.848Z,1.63
2023-01-11T23:51:48.273Z,1.90
2023-01-11T23:54:14.791Z,1.43
2023-01-11T23:56:41.109Z,1.38
2023-01-11T23:59:07.924Z,1.10
